createdAt,value
2022-08-05T00:01:27.849Z,28.01
2022-08-05T00:03:56.889Z,27.98
2022-08-05T00:06:30.698Z,27.93
2022-08-05T00:09:00.580Z,27.89
2022-08-05T00:11:34.515Z,27.86
2022-08-05T00:14:12.096Z,27.86
2022-08-05T00:16:53.123Z,27.82
2022-08-05T00:19:24.792Z,27.81
2022-08-05T00:21:59.784Z,27.75
2022-08-05T00:24:30.989Z,27.71
2022-08-05T00:26:58.864Z,27.69
2022-08-05T00:29:26.078Z,27.62
2022-08-05T00:32:12.702Z,27.61
2022-08-05T00:35:05.676Z,27.58
2022-08-05T00:37:50.617Z,27.53
2022-08-05T00:40:28.120Z,27.51
2022-08-05T00:42:59.348Z,27.44
2022-08-05T00:45:37.987Z,27.44
2022-08-05T00:48:07.321Z,27.40
2022-08-05T00:50:34.367Z,27.34
2022-08-05T00:53:02.581Z,27.33
2022-08-05T00:55:42.313Z,27.29
2022-08-05T00:58:12.920Z,27.28
2022-08-05T01:00:40.332Z,27.23
2022-08-05T01:03:08.986Z,27.18
2022-08-05T01:05:35.749Z,27.16
2022-08-05T01:08:41.247Z,27.12
2022-08-05T01:10:54.822Z,27.06
2022-08-05T01:13:27.368Z,27.07
2022-08-05T01:16:13.292Z,27.01
2022-08-05T01:18:53.769Z,26.98
2022-08-05T01:21:38.224Z,26.95
2022-08-05T01:24:13.170Z,26.91
2022-08-05T01:26:59.995Z,26.84
2022-08-05T01:29:35.074Z,26.84
2022-08-05T01:32:02.827Z,26.80
2022-08-05T01:34:32.311Z,26.76
2022-08-05T01:37:04.329Z,26.70
2022-08-05T01:39:46.303Z,26.62
2022-08-05T01:42:15.321Z,26.60
2022-08-05T01:44:42.346Z,26.61
2022-08-05T01:47:12.387Z,26.60
2022-08-05T01:50:01.312Z,26.55
2022-08-05T01:52:26.674Z,26.49
2022-08-05T01:54:54.498Z,26.48
2022-08-05T01:58:10.630Z,26.47
2022-08-05T02:00:12.486Z,26.38
2022-08-05T02:02:46.549Z,26.37
2022-08-05T02:05:23.574Z,26.33
2022-08-05T02:08:00.006Z,26.32
2022-08-05T02:10:28.933Z,26.27
2022-08-05T02:13:04.817Z,26.23
2022-08-05T02:15:54.400Z,26.20
2022-08-05T02:18:32.146Z,26.16
2022-08-05T02:21:15.576Z,26.12
2022-08-05T02:23:42.852Z,26.09
2022-08-05T02:26:10.397Z,26.07
2022-08-05T02:28:41.769Z,26.03
2022-08-05T02:31:20.184Z,26.03
2022-08-05T02:33:57.521Z,25.96
2022-08-05T02:36:27.495Z,25.93
2022-08-05T02:38:58.189Z,25.90
2022-08-05T02:41:28.725Z,25.85
2022-08-05T02:44:06.897Z,25.79
2022-08-05T02:46:53.168Z,25.80
2022-08-05T02:49:35.833Z,25.74
2022-08-05T02:52:04.899Z,25.69
2022-08-05T02:54:35.025Z,25.70
2022-08-05T02:57:09.845Z,25.64
2022-08-05T02:59:47.873Z,25.61
2022-08-05T03:02:19.491Z,25.59
2022-08-05T03:04:47.564Z,25.56
2022-08-05T03:07:40.593Z,25.53
2022-08-05T03:10:07.473Z,25.51
2022-08-05T03:12:37.867Z,25.46
2022-08-05T03:15:06.745Z,25.44
2022-08-05T03:17:34.524Z,25.43
2022-08-05T03:20:09.003Z,25.35
2022-08-05T03:22:37.191Z,25.34
2022-08-05T03:25:11.773Z,25.31
2022-08-05T03:27:59.819Z,25.29
2022-08-05T03:30:28.697Z,25.25
2022-08-05T03:33:04.304Z,25.21
2022-08-05T03:35:40.995Z,25.20
2022-08-05T03:38:10.685Z,25.13
2022-08-05T03:40:40.143Z,25.07
2022-08-05T03:43:59.181Z,25.06
2022-08-05T03:45:58.192Z,25.05
2022-08-05T03:48:26.750Z,25.03
2022-08-05T03:50:59.165Z,25.00
2022-08-05T03:55:52.465Z,24.96
2022-08-05T03:56:42.221Z,24.91
2022-08-05T03:59:13.944Z,24.88
2022-08-05T04:01:48.411Z,24.93
2022-08-05T04:04:21.043Z,24.88
2022-08-05T04:06:51.372Z,24.88
2022-08-05T04:09:20.444Z,24.88
2022-08-05T04:11:53.166Z,24.84
2022-08-05T04:14:29.950Z,24.84
2022-08-05T04:16:58.277Z,24.83
2022-08-05T04:19:25.876Z,24.79
2022-08-05T04:22:10.285Z,24.84
2022-08-05T04:24:44.150Z,24.79
2022-08-05T04:27:13.795Z,24.73
2022-08-05T04:29:42.334Z,24.67
2022-08-05T04:32:09.148Z,24.69
2022-08-05T04:34:37.563Z,24.70
2022-08-05T04:37:10.219Z,24.76
2022-08-05T04:39:37.667Z,24.70
2022-08-05T04:42:06.233Z,24.79
2022-08-05T04:44:33.527Z,24.83
2022-08-05T04:47:08.824Z,24.92
2022-08-05T04:50:02.830Z,25.01
2022-08-05T04:52:27.427Z,25.12
2022-08-05T04:54:57.092Z,25.14
2022-08-05T04:57:29.109Z,25.13
2022-08-05T04:59:58.500Z,25.13
2022-08-05T05:02:36.520Z,25.14
2022-08-05T05:05:26.399Z,25.19
2022-08-05T05:07:56.212Z,25.22
2022-08-05T05:10:29.548Z,25.24
2022-08-05T05:12:56.659Z,25.29
2022-08-05T05:15:57.319Z,25.33
2022-08-05T05:18:15.383Z,25.40
2022-08-05T05:20:55.599Z,25.47
2022-08-05T05:23:25.502Z,25.52
2022-08-05T05:25:52.276Z,25.57
2022-08-05T05:28:19.593Z,25.63
2022-08-05T05:30:49.802Z,25.71
2022-08-05T05:33:17.340Z,25.77
2022-08-05T05:35:45.189Z,25.82
2022-08-05T05:38:13.172Z,25.89
2022-08-05T05:40:48.383Z,25.93
2022-08-05T05:43:54.613Z,25.99
2022-08-05T05:46:15.793Z,26.06
2022-08-05T05:48:44.678Z,26.13
2022-08-05T05:51:17.929Z,26.20
2022-08-05T05:53:54.641Z,26.25
2022-08-05T05:56:32.325Z,26.31
2022-08-05T05:59:05.661Z,26.37
2022-08-05T06:01:37.552Z,26.43
2022-08-05T06:04:11.709Z,26.48
2022-08-05T06:06:43.322Z,26.55
2022-08-05T06:09:24.645Z,26.60
2022-08-05T06:12:01.354Z,26.69
2022-08-05T06:14:29.834Z,26.76
2022-08-05T06:16:56.869Z,26.81
2022-08-05T06:19:34.967Z,26.90
2022-08-05T06:22:06.365Z,26.98
2022-08-05T06:24:33.830Z,27.05
2022-08-05T06:27:01.775Z,27.13
2022-08-05T06:29:48.955Z,27.21
2022-08-05T06:32:24.851Z,27.30
2022-08-05T06:34:56.627Z,27.39
2022-08-05T06:37:56.635Z,27.49
2022-08-05T06:40:12.032Z,27.57
2022-08-05T06:42:39.822Z,27.69
2022-08-05T06:45:08.807Z,27.77
2022-08-05T06:48:36.926Z,27.80
2022-08-05T06:50:23.720Z,27.94
2022-08-05T06:52:58.701Z,28.04
2022-08-05T06:55:36.165Z,28.15
2022-08-05T06:58:20.274Z,28.25
2022-08-05T07:00:50.751Z,28.36
2022-08-05T07:03:17.822Z,28.45
2022-08-05T07:05:46.317Z,28.58
2022-08-05T07:08:13.344Z,28.63
2022-08-05T07:10:53.124Z,28.76
2022-08-05T07:13:57.510Z,28.87
2022-08-05T07:18:00.458Z,28.99
2022-08-05T07:20:23.167Z,29.14
2022-08-05T07:22:28.992Z,29.26
2022-08-05T07:25:23.720Z,29.39
2022-08-05T07:27:57.195Z,29.54
2022-08-05T07:30:34.016Z,29.64
2022-08-05T07:33:08.953Z,29.73
2022-08-05T07:36:03.869Z,29.85
2022-08-05T07:38:26.253Z,29.93
2022-08-05T07:41:17.163Z,30.06
2022-08-05T07:43:50.106Z,30.14
2022-08-05T07:46:24.512Z,30.20
2022-08-05T07:49:02.945Z,30.28
2022-08-05T07:51:40.201Z,30.38
2022-08-05T07:54:09.691Z,30.47
2022-08-05T07:56:38.947Z,30.54
2022-08-05T07:59:38.189Z,30.62
2022-08-05T08:02:16.849Z,30.75
2022-08-05T08:04:47.994Z,30.84
2022-08-05T08:07:15.777Z,30.93
2022-08-05T08:09:43.314Z,31.00
2022-08-05T08:12:27.513Z,31.07
2022-08-05T08:14:57.230Z,31.20
2022-08-05T08:17:30.363Z,31.30
2022-08-05T08:20:22.335Z,31.39
2022-08-05T08:22:44.452Z,31.49
2022-08-05T08:25:16.087Z,31.54
2022-08-05T08:27:45.114Z,31.66
2022-08-05T08:30:29.903Z,31.73
2022-08-05T08:33:04.528Z,31.84
2022-08-05T08:35:41.348Z,31.92
2022-08-05T08:38:16.271Z,32.00
2022-08-05T08:40:45.707Z,32.07
2022-08-05T08:45:16.140Z,32.16
2022-08-05T08:46:06.183Z,32.24
2022-08-05T08:48:41.581Z,32.32
2022-08-05T08:52:03.433Z,32.44
2022-08-05T08:54:11.150Z,32.46
2022-08-05T08:56:47.907Z,32.63
2022-08-05T08:59:19.740Z,32.65
2022-08-05T09:01:57.575Z,32.76
2022-08-05T09:04:30.281Z,32.80
2022-08-05T09:06:58.527Z,32.84
2022-08-05T09:09:26.073Z,32.92
2022-08-05T09:12:19.868Z,33.01
2022-08-05T09:14:56.508Z,33.03
2022-08-05T09:17:42.860Z,33.16
2022-08-05T09:20:21.059Z,33.16
2022-08-05T09:23:07.803Z,33.21
2022-08-05T09:26:02.659Z,33.28
2022-08-05T09:28:24.533Z,33.40
2022-08-05T09:31:18.178Z,33.50
2022-08-05T09:33:58.609Z,33.64
2022-08-05T09:36:38.259Z,33.71
2022-08-05T09:39:18.285Z,33.79
2022-08-05T09:41:56.402Z,33.94
2022-08-05T09:44:41.082Z,33.94
2022-08-05T09:47:10.412Z,34.07
2022-08-05T09:50:00.656Z,34.18
2022-08-05T09:52:30.278Z,34.25
2022-08-05T09:55:57.697Z,34.34
2022-08-05T09:57:59.857Z,34.46
2022-08-05T10:00:27.743Z,34.56
2022-08-05T10:02:58.333Z,34.64
2022-08-05T10:05:26.660Z,34.78
2022-08-05T10:08:35.080Z,34.87
2022-08-05T10:10:44.256Z,34.92
2022-08-05T10:13:12.003Z,35.04
2022-08-05T10:15:41.524Z,35.10
2022-08-05T10:18:22.891Z,35.26
2022-08-05T10:20:50.795Z,35.30
2022-08-05T10:23:34.602Z,35.43
2022-08-05T10:26:07.048Z,35.57
2022-08-05T10:28:33.996Z,35.76
2022-08-05T10:32:49.069Z,35.82
2022-08-05T10:33:54.096Z,35.96
2022-08-05T10:36:23.426Z,36.06
2022-08-05T10:38:55.449Z,36.14
2022-08-05T10:41:45.293Z,36.36
2022-08-05T10:44:16.354Z,36.38
2022-08-05T10:46:44.670Z,36.48
2022-08-05T10:49:16.939Z,36.54
2022-08-05T10:51:53.061Z,36.64
2022-08-05T10:54:56.704Z,36.65
2022-08-05T10:57:32.312Z,36.70
2022-08-05T11:00:18.137Z,36.79
2022-08-05T11:03:25.599Z,36.78
2022-08-05T11:06:05.325Z,36.77
2022-08-05T11:08:37.035Z,36.76
2022-08-05T11:11:23.111Z,36.81
2022-08-05T11:14:00.137Z,36.84
2022-08-05T11:16:47.779Z,36.90
2022-08-05T11:20:10.894Z,36.99
2022-08-05T11:22:36.258Z,37.07
2022-08-05T11:26:04.180Z,37.10
2022-08-05T11:28:11.667Z,37.13
2022-08-05T11:30:58.456Z,37.23
2022-08-05T11:33:43.858Z,37.27
2022-08-05T11:36:40.454Z,37.38
2022-08-05T11:39:09.679Z,37.43
2022-08-05T11:41:57.957Z,37.52
2022-08-05T11:44:52.946Z,37.63
2022-08-05T11:47:15.252Z,37.65
2022-08-05T11:49:58.333Z,37.72
2022-08-05T11:52:29.249Z,37.71
2022-08-05T11:54:56.884Z,37.74
2022-08-05T11:57:28.026Z,37.76
2022-08-05T11:59:57.911Z,37.80
2022-08-05T12:02:30.583Z,37.86
2022-08-05T12:05:00.315Z,37.94
2022-08-05T12:08:02.669Z,38.00
2022-08-05T12:10:14.523Z,38.11
2022-08-05T12:12:58.344Z,38.11
2022-08-05T12:15:35.963Z,38.14
2022-08-05T12:18:10.675Z,38.29
2022-08-05T12:20:39.422Z,38.36
2022-08-05T12:23:08.108Z,38.42
2022-08-05T12:25:48.880Z,38.38
2022-08-05T12:28:30.917Z,38.45
2022-08-05T12:31:02.095Z,38.52
2022-08-05T12:33:36.485Z,38.63
2022-08-05T12:36:07.858Z,38.71
2022-08-05T12:38:40.097Z,38.78
2022-08-05T12:41:12.912Z,38.79
2022-08-05T12:43:50.876Z,38.79
2022-08-05T12:46:28.822Z,38.89
2022-08-05T12:49:01.101Z,38.90
2022-08-05T12:52:12.789Z,38.95
2022-08-05T12:54:29.415Z,38.94
2022-08-05T12:56:57.813Z,38.96
2022-08-05T13:00:08.879Z,38.95
2022-08-05T13:02:21.794Z,38.99
2022-08-05T13:04:54.998Z,39.07
2022-08-05T13:07:54.772Z,39.08
2022-08-05T13:10:14.589Z,39.13
2022-08-05T13:12:57.379Z,39.20
2022-08-05T13:15:42.185Z,39.24
2022-08-05T13:18:20.623Z,39.16
2022-08-05T13:20:49.405Z,39.29
2022-08-05T13:23:18.263Z,39.25
2022-08-05T13:25:52.664Z,39.30
2022-08-05T13:28:25.962Z,39.36
2022-08-05T13:30:53.318Z,39.37
2022-08-05T13:34:23.243Z,39.34
2022-08-05T13:36:10.531Z,39.41
2022-08-05T13:38:38.526Z,39.40
2022-08-05T13:41:10.863Z,39.43
2022-08-05T13:43:44.189Z,39.40
2022-08-05T13:46:12.971Z,39.46
2022-08-05T13:48:58.177Z,39.48
2022-08-05T13:51:28.750Z,39.52
2022-08-05T13:53:57.948Z,39.56
2022-08-05T13:56:25.046Z,39.55
2022-08-05T13:58:53.231Z,39.55
2022-08-05T14:01:25.832Z,39.46
2022-08-05T14:04:21.799Z,39.55
2022-08-05T14:07:12.038Z,39.54
2022-08-05T14:09:46.063Z,39.58
2022-08-05T14:12:17.647Z,39.57
2022-08-05T14:14:58.773Z,39.57
2022-08-05T14:17:26.577Z,39.59
2022-08-05T14:19:59.653Z,39.58
2022-08-05T14:22:30.373Z,39.60
2022-08-05T14:25:01.503Z,39.57
2022-08-05T14:27:28.485Z,39.51
2022-08-05T14:29:55.580Z,39.53
2022-08-05T14:32:26.970Z,39.58
2022-08-05T14:34:56.895Z,39.51
2022-08-05T14:37:47.352Z,39.49
2022-08-05T14:40:14.239Z,39.53
2022-08-05T14:42:44.240Z,39.56
2022-08-05T14:45:11.417Z,39.58
2022-08-05T14:48:03.916Z,39.57
2022-08-05T14:50:25.430Z,39.58
2022-08-05T14:52:56.733Z,39.56
2022-08-05T14:55:39.242Z,39.54
2022-08-05T14:58:11.169Z,39.57
2022-08-05T15:00:39.582Z,39.60
2022-08-05T15:03:26.483Z,39.60
2022-08-05T15:06:07.608Z,39.60
2022-08-05T15:08:59.315Z,39.60
2022-08-05T15:11:51.507Z,39.59
2022-08-05T15:14:33.605Z,39.57
2022-08-05T15:17:01.913Z,39.52
2022-08-05T15:19:31.313Z,39.45
2022-08-05T15:22:00.171Z,39.36
2022-08-05T15:24:27.595Z,39.35
2022-08-05T15:26:56.055Z,39.33
2022-08-05T15:29:29.877Z,39.33
2022-08-05T15:32:03.142Z,39.32
2022-08-05T15:34:32.820Z,39.30
2022-08-05T15:37:06.100Z,39.27
2022-08-05T15:41:04.305Z,39.23
2022-08-05T15:42:54.260Z,39.21
2022-08-05T15:45:07.582Z,39.19
2022-08-05T15:47:37.254Z,39.16
2022-08-05T15:50:06.059Z,39.10
2022-08-05T15:52:53.014Z,39.11
2022-08-05T15:55:24.634Z,39.13
2022-08-05T15:58:08.275Z,39.10
2022-08-05T16:01:04.064Z,39.09
2022-08-05T16:03:22.057Z,39.07
2022-08-05T16:05:52.825Z,39.04
2022-08-05T16:08:22.729Z,39.02
2022-08-05T16:10:50.997Z,39.01
2022-08-05T16:13:23.670Z,38.99
2022-08-05T16:15:59.125Z,38.96
2022-08-05T16:18:29.010Z,38.94
2022-08-05T16:20:56.037Z,38.92
2022-08-05T16:23:23.049Z,38.90
2022-08-05T16:25:53.276Z,38.89
2022-08-05T16:28:24.281Z,38.85
2022-08-05T16:30:52.994Z,38.82
2022-08-05T16:33:20.564Z,38.77
2022-08-05T16:35:52.744Z,38.74
2022-08-05T16:38:25.294Z,38.71
2022-08-05T16:41:00.460Z,38.69
2022-08-05T16:43:29.278Z,38.65
2022-08-05T16:46:06.167Z,38.62
2022-08-05T16:48:35.996Z,38.57
2022-08-05T16:51:09.451Z,38.55
2022-08-05T16:54:06.202Z,38.50
2022-08-05T16:56:25.878Z,38.45
2022-08-05T16:58:52.897Z,38.41
2022-08-05T17:01:20.288Z,38.35
2022-08-05T17:03:47.614Z,38.31
2022-08-05T17:06:16.559Z,38.29
2022-08-05T17:08:52.238Z,38.26
2022-08-05T17:11:23.884Z,38.22
2022-08-05T17:14:00.504Z,38.20
2022-08-05T17:16:37.227Z,38.17
2022-08-05T17:19:07.697Z,38.13
2022-08-05T17:21:37.338Z,38.09
2022-08-05T17:24:20.510Z,38.04
2022-08-05T17:26:52.762Z,38.01
2022-08-05T17:29:22.578Z,37.98
2022-08-05T17:32:00.026Z,37.95
2022-08-05T17:34:29.910Z,37.85
2022-08-05T17:37:02.283Z,37.79
2022-08-05T17:39:34.109Z,37.78
2022-08-05T17:42:17.558Z,37.75
2022-08-05T17:44:50.335Z,37.71
2022-08-05T17:47:21.965Z,37.67
2022-08-05T17:50:03.870Z,37.64
2022-08-05T17:52:32.055Z,37.60
2022-08-05T17:54:59.286Z,37.54
2022-08-05T17:57:26.152Z,37.50
2022-08-05T18:00:03.403Z,37.46
2022-08-05T18:02:32.430Z,37.42
2022-08-05T18:05:02.858Z,37.36
2022-08-05T18:07:41.370Z,37.32
2022-08-05T18:10:10.529Z,37.26
2022-08-05T18:12:38.069Z,37.21
2022-08-05T18:15:05.184Z,37.16
2022-08-05T18:18:00.796Z,37.11
2022-08-05T18:20:29.167Z,37.03
2022-08-05T18:23:00.421Z,37.01
2022-08-05T18:25:35.938Z,36.95
2022-08-05T18:28:05.127Z,36.90
2022-08-05T18:30:33.238Z,36.85
2022-08-05T18:33:00.999Z,36.81
2022-08-05T18:36:00.696Z,36.74
2022-08-05T18:38:16.421Z,36.66
2022-08-05T18:41:57.291Z,36.62
2022-08-05T18:43:38.137Z,36.56
2022-08-05T18:46:09.548Z,36.48
2022-08-05T18:48:41.654Z,36.42
2022-08-05T18:52:02.907Z,36.35
2022-08-05T18:54:14.505Z,36.27
2022-08-05T18:56:41.924Z,36.21
2022-08-05T18:59:42.840Z,36.13
2022-08-05T19:02:11.201Z,36.06
2022-08-05T19:05:01.227Z,35.98
2022-08-05T19:07:45.223Z,35.93
2022-08-05T19:10:12.728Z,35.87
2022-08-05T19:12:40.464Z,35.83
2022-08-05T19:15:10.610Z,35.79
2022-08-05T19:17:59.330Z,35.73
2022-08-05T19:20:36.843Z,35.64
2022-08-05T19:23:07.680Z,35.61
2022-08-05T19:25:42.015Z,35.55
2022-08-05T19:28:10.678Z,35.48
2022-08-05T19:30:37.522Z,35.41
2022-08-05T19:33:05.170Z,35.35
2022-08-05T19:35:55.976Z,35.28
2022-08-05T19:38:26.723Z,35.22
2022-08-05T19:40:53.849Z,35.10
2022-08-05T19:43:31.204Z,35.08
2022-08-05T19:46:28.923Z,35.00
2022-08-05T19:48:54.344Z,34.93
2022-08-05T19:51:59.833Z,34.89
2022-08-05T19:54:15.709Z,34.80
2022-08-05T19:56:55.685Z,34.72
2022-08-05T19:59:55.526Z,34.67
2022-08-05T20:02:09.585Z,34.58
2022-08-05T20:04:37.803Z,34.54
2022-08-05T20:07:13.309Z,34.49
2022-08-05T20:09:54.849Z,34.42
2022-08-05T20:12:24.443Z,34.36
2022-08-05T20:14:52.406Z,34.28
2022-08-05T20:17:23.305Z,34.23
2022-08-05T20:19:56.755Z,34.17
2022-08-05T20:22:26.800Z,34.09
2022-08-05T20:24:55.359Z,34.07
2022-08-05T20:27:26.628Z,34.00
2022-08-05T20:29:57.970Z,33.93
2022-08-05T20:32:26.125Z,33.87
2022-08-05T20:34:53.056Z,33.79
2022-08-05T20:38:04.636Z,33.74
2022-08-05T20:40:07.258Z,33.67
2022-08-05T20:42:34.778Z,33.62
2022-08-05T20:45:02.514Z,33.56
2022-08-05T20:47:31.832Z,33.46
2022-08-05T20:49:59.166Z,33.46
2022-08-05T20:52:26.192Z,33.36
2022-08-05T20:55:55.201Z,33.35
2022-08-05T20:57:43.023Z,33.30
2022-08-05T21:00:41.479Z,33.19
2022-08-05T21:03:06.277Z,33.16
2022-08-05T21:05:38.335Z,33.12
2022-08-05T21:08:19.993Z,33.03
2022-08-05T21:10:48.926Z,32.98
2022-08-05T21:13:26.547Z,32.95
2022-08-05T21:16:03.588Z,32.86
2022-08-05T21:18:30.595Z,32.84
2022-08-05T21:20:57.597Z,32.77
2022-08-05T21:23:25.046Z,32.72
2022-08-05T21:25:51.786Z,32.66
2022-08-05T21:28:23.942Z,32.61
2022-08-05T21:30:57.689Z,32.56
2022-08-05T21:33:24.397Z,32.48
2022-08-05T21:36:04.395Z,32.44
2022-08-05T21:38:31.109Z,32.41
2022-08-05T21:40:57.958Z,32.39
2022-08-05T21:43:25.170Z,32.33
2022-08-05T21:45:57.490Z,32.27
2022-08-05T21:48:27.720Z,32.24
2022-08-05T21:50:55.302Z,32.16
2022-08-05T21:53:27.053Z,32.13
2022-08-05T21:56:04.781Z,32.09
2022-08-05T21:58:33.228Z,32.03
2022-08-05T22:01:00.503Z,31.99
2022-08-05T22:03:52.067Z,31.96
2022-08-05T22:06:15.169Z,31.90
2022-08-05T22:08:42.345Z,31.85
2022-08-05T22:11:11.918Z,31.81
2022-08-05T22:14:32.518Z,31.77
2022-08-05T22:16:41.873Z,31.72
2022-08-05T22:20:02.180Z,31.65
2022-08-05T22:22:03.343Z,31.59
2022-08-05T22:24:51.856Z,31.56
2022-08-05T22:28:05.049Z,31.53
2022-08-05T22:30:24.995Z,31.46
2022-08-05T22:32:59.530Z,31.44
2022-08-05T22:35:26.485Z,31.38
2022-08-05T22:38:05.651Z,31.33
2022-08-05T22:40:36.838Z,31.30
2022-08-05T22:43:04.994Z,31.23
2022-08-05T22:45:31.702Z,31.21
2022-08-05T22:47:59.733Z,31.15
2022-08-05T22:50:27.698Z,31.11
2022-08-05T22:52:54.762Z,31.05
2022-08-05T22:55:22.117Z,31.01
2022-08-05T22:57:52.007Z,30.97
2022-08-05T23:00:21.097Z,30.93
2022-08-05T23:02:48.879Z,30.89
2022-08-05T23:05:15.905Z,30.85
2022-08-05T23:07:48.481Z,30.82
2022-08-05T23:10:20.241Z,30.77
2022-08-05T23:12:51.203Z,30.74
2022-08-05T23:15:18.871Z,30.69
2022-08-05T23:18:01.105Z,30.64
2022-08-05T23:20:30.134Z,30.61
2022-08-05T23:22:58.807Z,30.58
2022-08-05T23:25:53.302Z,30.54
2022-08-05T23:28:12.814Z,30.50
2022-08-05T23:30:43.435Z,30.47
2022-08-05T23:33:16.369Z,30.43
2022-08-05T23:35:50.255Z,30.39
2022-08-05T23:38:17.134Z,30.37
2022-08-05T23:40:50.017Z,30.32
2022-08-05T23:43:25.519Z,30.28
2022-08-05T23:46:04.966Z,30.23
2022-08-05T23:48:59.989Z,30.20
2022-08-05T23:51:54.136Z,30.17
2022-08-05T23:54:30.304Z,30.13
2022-08-05T23:57:04.623Z,30.09
